Time;durP1;ratioP1;P1;durP2;ratioP2;P2;SDS_P1;SDS_P2;PMS_P1;PMS_P2;Temp;Humidity;BMP_temperature;BMP_pressure;BME280_temperature;BME280_humidity;BME280_pressure;Samples;Min_cycle;Max_cycle;Signal;HPM_P1;HPM_P2
2022/12/14 00:00:46;;;;;;;18.90;8.85;;;;;;;;;;5982630;23;20325;-82
2022/12/14 00:03:12;;;;;;;22.17;9.75;;;;;;;;;;5982377;23;20043;-82
2022/12/14 00:05:37;;;;;;;17.75;9.38;;;;;;;;;;6005749;23;20393;-82
2022/12/14 00:08:03;;;;;;;18.90;8.85;;;;;;;;;;6006774;23;20083;-82
2022/12/14 00:10:31;;;;;;;19.70;9.10;;;;;;;;;;5983220;23;20030;-82
2022/12/14 00:12:57;;;;;;;20.48;9.10;;;;;;;;;;5969323;23;20026;-82
2022/12/14 00:15:22;;;;;;;16.63;7.97;;;;;;;;;;5982483;23;20023;-83
2022/12/14 00:17:50;;;;;;;17.35;8.57;;;;;;;;;;5983038;23;20016;-82
2022/12/14 00:20:16;;;;;;;17.80;9.02;;;;;;;;;;5982766;23;20025;-83
2022/12/14 00:22:41;;;;;;;19.70;8.25;;;;;;;;;;5983256;23;20082;-83
2022/12/14 00:25:07;;;;;;;14.68;8.60;;;;;;;;;;6005959;23;20027;-83
2022/12/14 00:27:32;;;;;;;18.08;8.75;;;;;;;;;;5982516;23;20334;-81
2022/12/14 00:29:58;;;;;;;17.80;9.05;;;;;;;;;;5983347;23;20031;-82
2022/12/14 00:32:23;;;;;;;20.02;9.25;;;;;;;;;;5992915;23;20500;-83
2022/12/14 00:34:49;;;;;;;20.17;9.75;;;;;;;;;;6006397;23;20381;-81
2022/12/14 00:37:14;;;;;;;18.15;8.88;;;;;;;;;;6005709;23;20115;-81
2022/12/14 00:39:39;;;;;;;17.23;8.60;;;;;;;;;;5992512;23;20019;-83
2022/12/14 00:42:06;;;;;;;21.65;9.43;;;;;;;;;;6005365;23;20495;-82
2022/12/14 00:44:32;;;;;;;19.03;8.37;;;;;;;;;;5983533;23;20015;-82
2022/12/14 00:46:57;;;;;;;18.98;9.50;;;;;;;;;;5981633;23;20023;-83
2022/12/14 00:49:22;;;;;;;17.73;8.63;;;;;;;;;;6005933;23;20027;-83
2022/12/14 00:51:48;;;;;;;21.45;9.45;;;;;;;;;;6005799;23;20011;-83
2022/12/14 00:54:16;;;;;;;17.88;8.90;;;;;;;;;;5983265;23;20397;-83
2022/12/14 00:56:44;;;;;;;17.33;8.32;;;;;;;;;;5982058;23;20445;-82
2022/12/14 00:59:10;;;;;;;19.65;8.82;;;;;;;;;;5982789;23;20487;-83
2022/12/14 01:01:35;;;;;;;18.27;9.23;;;;;;;;;;5982234;23;20015;-82
2022/12/14 01:04:16;;;;;;;17.08;8.27;;;;;;;;;;6006803;23;20015;-83
2022/12/14 01:06:42;;;;;;;16.95;7.85;;;;;;;;;;5970917;23;20094;-82
2022/12/14 01:09:08;;;;;;;18.05;8.15;;;;;;;;;;5981959;23;20034;-83
2022/12/14 01:11:33;;;;;;;20.17;8.50;;;;;;;;;;5982623;23;20011;-82
2022/12/14 01:13:59;;;;;;;15.85;8.07;;;;;;;;;;6006835;23;20094;-83
2022/12/14 01:16:24;;;;;;;20.05;9.43;;;;;;;;;;6005232;23;20031;-82
2022/12/14 01:18:50;;;;;;;21.65;8.70;;;;;;;;;;6006277;23;20011;-83
2022/12/14 01:21:18;;;;;;;21.20;9.68;;;;;;;;;;6006019;23;20430;-83
2022/12/14 01:23:44;;;;;;;20.35;8.90;;;;;;;;;;6006126;23;20022;-83
2022/12/14 01:26:11;;;;;;;17.13;9.68;;;;;;;;;;5981674;23;20050;-85
2022/12/14 01:28:57;;;;;;;18.50;9.13;;;;;;;;;;6005941;23;20022;-82
2022/12/14 01:31:25;;;;;;;16.95;8.13;;;;;;;;;;5971407;24;20035;-83
2022/12/14 01:33:51;;;;;;;17.85;9.02;;;;;;;;;;5971526;24;20793;-82
2022/12/14 01:36:27;;;;;;;18.05;8.48;;;;;;;;;;5948213;24;20028;-82
2022/12/14 01:38:55;;;;;;;13.88;7.07;;;;;;;;;;5948819;24;20445;-81
2022/12/14 01:41:27;;;;;;;18.30;8.60;;;;;;;;;;5944180;23;20020;-82
2022/12/14 01:43:59;;;;;;;19.83;9.27;;;;;;;;;;5948251;24;20036;-83
2022/12/14 01:46:36;;;;;;;17.70;9.27;;;;;;;;;;5970475;23;20029;-83
2022/12/14 01:49:20;;;;;;;18.45;8.68;;;;;;;;;;5971723;24;20057;-82
2022/12/14 01:51:55;;;;;;;19.73;9.13;;;;;;;;;;5948080;24;20016;-83
2022/12/14 01:54:21;;;;;;;18.90;8.95;;;;;;;;;;5948118;24;20020;-82
2022/12/14 01:56:47;;;;;;;19.45;9.60;;;;;;;;;;5947740;24;20475;-83
2022/12/14 01:59:20;;;;;;;17.98;9.18;;;;;;;;;;5970850;24;20071;-82
2022/12/14 02:01:45;;;;;;;18.85;8.80;;;;;;;;;;5948664;24;20115;-82
2022/12/14 02:04:12;;;;;;;19.27;9.75;;;;;;;;;;5970766;24;20049;-83
2022/12/14 02:06:39;;;;;;;22.65;9.70;;;;;;;;;;5971318;24;20554;-82
2022/12/14 02:09:08;;;;;;;19.27;9.32;;;;;;;;;;5998728;23;20022;-82
2022/12/14 02:11:43;;;;;;;22.05;9.35;;;;;;;;;;5982149;23;20516;-81
2022/12/14 02:14:08;;;;;;;20.05;9.45;;;;;;;;;;6005528;23;20019;-82
2022/12/14 02:16:34;;;;;;;20.08;9.00;;;;;;;;;;5982733;23;20412;-81
2022/12/14 02:18:59;;;;;;;19.60;9.13;;;;;;;;;;5983217;23;20023;-82
2022/12/14 02:21:30;;;;;;;19.60;9.00;;;;;;;;;;5980683;23;20563;-82
2022/12/14 02:24:30;;;;;;;19.92;9.30;;;;;;;;;;6029310;23;20027;-83
2022/12/14 02:27:15;;;;;;;18.15;8.65;;;;;;;;;;6030037;23;20019;-81
2022/12/14 02:30:06;;;;;;;18.73;8.98;;;;;;;;;;6005790;23;20058;-81
2022/12/14 02:32:56;;;;;;;20.75;8.98;;;;;;;;;;6005283;23;20015;-83
2022/12/14 02:35:34;;;;;;;18.55;8.88;;;;;;;;;;6029728;23;20034;-83
2022/12/14 02:38:12;;;;;;;19.25;8.90;;;;;;;;;;6029274;23;20042;-82
2022/12/14 02:40:39;;;;;;;20.05;9.52;;;;;;;;;;6005214;23;20023;-82
2022/12/14 02:43:21;;;;;;;18.20;8.80;;;;;;;;;;6004743;23;20349;-82
2022/12/14 02:46:13;;;;;;;19.55;8.82;;;;;;;;;;6005280;23;20083;-82
2022/12/14 02:48:46;;;;;;;19.20;9.25;;;;;;;;;;6004653;23;20040;-82
2022/12/14 02:51:23;;;;;;;22.45;8.38;;;;;;;;;;6004929;23;20028;-83
2022/12/14 02:53:59;;;;;;;19.60;9.05;;;;;;;;;;5981801;23;20360;-84
2022/12/14 02:56:31;;;;;;;21.10;8.95;;;;;;;;;;6004258;23;20034;-83
2022/12/14 02:58:56;;;;;;;17.15;8.80;;;;;;;;;;6005498;23;20524;-82
2022/12/14 03:01:24;;;;;;;21.13;9.80;;;;;;;;;;5981349;23;20026;-85
2022/12/14 03:03:49;;;;;;;;;;;;;;;;;;6006234;23;20449;-82
2022/12/14 03:06:26;;;;;;;18.40;7.95;;;;;;;;;;6004470;23;20041;-83
2022/12/14 03:09:08;;;;;;;18.30;8.73;;;;;;;;;;5969930;23;20044;-82
2022/12/14 03:11:46;;;;;;;22.73;9.43;;;;;;;;;;6004871;23;20330;-81
2022/12/14 03:14:26;;;;;;;17.85;8.27;;;;;;;;;;5982136;23;20097;-83
2022/12/14 03:16:52;;;;;;;19.38;8.85;;;;;;;;;;5981523;23;20731;-83
2022/12/14 03:19:39;;;;;;;19.25;8.98;;;;;;;;;;6005481;23;20016;-85
2022/12/14 03:22:07;;;;;;;19.38;8.35;;;;;;;;;;5981529;23;20385;-83
2022/12/14 03:24:41;;;;;;;19.92;9.25;;;;;;;;;;6005257;23;20098;-81
2022/12/14 03:27:12;;;;;;;23.35;8.63;;;;;;;;;;5981609;23;20038;-83
2022/12/14 03:29:42;;;;;;;20.92;9.43;;;;;;;;;;6005421;23;20542;-83
2022/12/14 03:32:13;;;;;;;21.83;9.18;;;;;;;;;;6004907;23;20022;-84
2022/12/14 03:34:47;;;;;;;22.02;9.63;;;;;;;;;;6004875;23;20410;-82
2022/12/14 03:37:18;;;;;;;18.35;7.85;;;;;;;;;;5981257;23;20019;-82
2022/12/14 03:39:44;;;;;;;18.10;9.38;;;;;;;;;;5981865;23;20015;-81
2022/12/14 03:42:28;;;;;;;19.02;9.02;;;;;;;;;;5981159;23;20023;-82
2022/12/14 03:45:01;;;;;;;17.35;9.20;;;;;;;;;;5981625;23;20034;-83
2022/12/14 03:48:00;;;;;;;20.02;9.35;;;;;;;;;;5980520;23;20031;-82
2022/12/14 03:50:33;;;;;;;15.57;7.60;;;;;;;;;;6004297;23;20031;-82
2022/12/14 03:53:06;;;;;;;18.10;9.07;;;;;;;;;;6005049;23;20409;-82
2022/12/14 03:55:37;;;;;;;19.05;9.07;;;;;;;;;;5981201;23;20094;-81
2022/12/14 03:58:38;;;;;;;17.80;9.18;;;;;;;;;;6030663;23;20029;-82
2022/12/14 04:01:18;;;;;;;16.52;8.45;;;;;;;;;;5905289;23;20475;-83
2022/12/14 04:03:52;;;;;;;16.15;8.48;;;;;;;;;;5976453;23;20016;-83
2022/12/14 04:06:29;;;;;;;19.92;9.15;;;;;;;;;;5976338;23;20520;-83
2022/12/14 04:09:11;;;;;;;18.33;8.88;;;;;;;;;;5976612;23;20479;-83
2022/12/14 04:20:10;;;;;;;16.60;8.80;;;;;;;;;;5981380;23;20117;-81
2022/12/14 04:22:42;;;;;;;19.17;8.85;;;;;;;;;;5976454;23;20516;-84
2022/12/14 04:28:01;;;;;;;19.52;9.63;;;;;;;;;;6001361;23;20499;-84
2022/12/14 04:30:28;;;;;;;20.98;9.88;;;;;;;;;;5954642;23;20026;-84
2022/12/14 04:33:45;;;;;;;;;;;;;;;;;;5979318;23;20487;-83
2022/12/14 04:35:46;;;;;;;16.13;7.60;;;;;;;;;;6000681;23;20331;-83
2022/12/14 04:38:15;;;;;;;21.15;9.68;;;;;;;;;;5954602;23;20024;-82
2022/12/14 04:40:58;;;;;;;22.60;10.07;;;;;;;;;;5955171;23;20022;-84
2022/12/14 04:43:28;;;;;;;19.30;9.45;;;;;;;;;;5942726;23;20031;-83
2022/12/14 04:45:59;;;;;;;16.70;8.57;;;;;;;;;;5977347;23;20194;-82
2022/12/14 04:48:27;;;;;;;19.38;9.25;;;;;;;;;;6002891;23;20012;-83
2022/12/14 04:51:02;;;;;;;16.10;7.95;;;;;;;;;;5977351;23;20016;-83
2022/12/14 04:53:29;;;;;;;18.40;9.77;;;;;;;;;;5954996;23;20452;-83
2022/12/14 04:56:31;;;;;;;19.85;10.07;;;;;;;;;;5954156;23;20016;-83
2022/12/14 04:58:57;;;;;;;20.45;9.48;;;;;;;;;;5981251;23;20035;-83
2022/12/14 05:01:37;;;;;;;18.90;9.48;;;;;;;;;;5977751;23;20399;-83
2022/12/14 05:04:24;;;;;;;22.95;9.43;;;;;;;;;;6001747;23;20394;-83
2022/12/14 05:07:00;;;;;;;20.70;9.80;;;;;;;;;;5977422;23;20023;-83
2022/12/14 05:09:32;;;;;;;19.23;9.35;;;;;;;;;;5977970;23;20035;-82
2022/12/14 05:12:13;;;;;;;20.02;8.30;;;;;;;;;;6001183;23;20107;-82
2022/12/14 05:14:43;;;;;;;23.17;8.85;;;;;;;;;;5977872;23;20016;-83
2022/12/14 05:17:08;;;;;;;24.27;9.73;;;;;;;;;;5977169;23;20046;-83
2022/12/14 05:19:34;;;;;;;19.80;9.90;;;;;;;;;;5977185;23;20043;-88
2022/12/14 05:22:06;;;;;;;22.65;9.30;;;;;;;;;;5978283;23;20028;-89
2022/12/14 05:24:32;;;;;;;16.88;8.43;;;;;;;;;;5978401;23;20012;-87
2022/12/14 05:26:57;;;;;;;22.63;9.20;;;;;;;;;;5977876;23;20031;-87
2022/12/14 05:29:23;;;;;;;20.73;8.45;;;;;;;;;;5977831;23;20217;-87
2022/12/14 05:31:50;;;;;;;22.10;9.85;;;;;;;;;;5978079;23;20321;-86
2022/12/14 05:34:15;;;;;;;22.48;9.65;;;;;;;;;;5978672;23;20513;-86
2022/12/14 05:36:41;;;;;;;20.48;9.48;;;;;;;;;;5954562;23;20023;-88
2022/12/14 05:39:06;;;;;;;20.40;9.15;;;;;;;;;;5953987;23;20020;-88
2022/12/14 05:41:31;;;;;;;19.40;8.55;;;;;;;;;;5978501;23;20012;-88
2022/12/14 05:43:57;;;;;;;18.63;8.82;;;;;;;;;;5977464;23;20043;-88
2022/12/14 05:46:22;;;;;;;18.42;8.82;;;;;;;;;;5977732;23;20027;-85
2022/12/14 05:48:48;;;;;;;23.45;8.98;;;;;;;;;;6001486;23;20019;-89
2022/12/14 05:51:13;;;;;;;25.13;10.60;;;;;;;;;;6001246;23;20023;-88
2022/12/14 05:53:39;;;;;;;20.65;9.00;;;;;;;;;;5978313;23;20463;-87
2022/12/14 05:56:06;;;;;;;19.55;9.40;;;;;;;;;;5953953;23;20479;-88
2022/12/14 05:58:32;;;;;;;20.27;9.43;;;;;;;;;;5981570;23;20016;-87
2022/12/14 06:01:01;;;;;;;20.95;8.68;;;;;;;;;;5981870;23;20082;-86
2022/12/14 06:03:27;;;;;;;19.65;9.30;;;;;;;;;;6006408;23;20443;-88
2022/12/14 06:05:53;;;;;;;19.35;8.75;;;;;;;;;;5981914;23;20011;-87
2022/12/14 06:08:18;;;;;;;17.80;8.65;;;;;;;;;;6005573;23;20404;-88
2022/12/14 06:10:44;;;;;;;19.50;8.70;;;;;;;;;;6005669;23;20472;-88
2022/12/14 06:13:09;;;;;;;18.73;9.05;;;;;;;;;;5982501;23;20022;-89
2022/12/14 06:15:34;;;;;;;19.02;8.80;;;;;;;;;;5981165;23;20015;-87
2022/12/14 06:18:00;;;;;;;18.02;8.73;;;;;;;;;;6005660;23;20038;-87
2022/12/14 06:20:26;;;;;;;19.63;9.35;;;;;;;;;;5966635;23;20065;-88
2022/12/14 06:22:53;;;;;;;18.50;8.93;;;;;;;;;;5982480;23;20023;-88
2022/12/14 06:25:19;;;;;;;22.60;10.18;;;;;;;;;;5982305;23;20421;-88
2022/12/14 06:27:47;;;;;;;19.25;9.00;;;;;;;;;;5982971;23;20063;-88
2022/12/14 06:30:13;;;;;;;17.17;8.55;;;;;;;;;;6006201;23;20019;-87
2022/12/14 06:32:39;;;;;;;19.48;9.23;;;;;;;;;;6005150;23;20130;-86
2022/12/14 06:35:05;;;;;;;17.27;8.43;;;;;;;;;;6003897;23;20508;-86
2022/12/14 06:37:33;;;;;;;19.73;8.75;;;;;;;;;;5981068;23;20030;-87
2022/12/14 06:39:58;;;;;;;20.48;9.70;;;;;;;;;;5980740;23;20511;-86
2022/12/14 06:42:24;;;;;;;21.08;9.88;;;;;;;;;;5980612;23;20054;-87
2022/12/14 06:44:49;;;;;;;18.85;8.52;;;;;;;;;;6004717;23;20023;-86
2022/12/14 06:47:15;;;;;;;18.27;8.70;;;;;;;;;;5980306;23;20023;-86
2022/12/14 06:49:40;;;;;;;20.33;9.07;;;;;;;;;;5980396;23;20472;-86
2022/12/14 06:52:05;;;;;;;18.40;8.57;;;;;;;;;;5990174;23;20025;-84
2022/12/14 06:54:31;;;;;;;17.73;8.20;;;;;;;;;;5980606;23;20023;-86
2022/12/14 06:56:56;;;;;;;15.23;8.55;;;;;;;;;;6004233;23;20152;-86
2022/12/14 06:59:22;;;;;;;18.92;7.97;;;;;;;;;;6004179;23;20027;-85
2022/12/14 07:01:47;;;;;;;19.33;9.05;;;;;;;;;;6003943;23;20023;-87
2022/12/14 07:04:15;;;;;;;18.90;9.13;;;;;;;;;;6003912;23;20027;-84
2022/12/14 07:06:40;;;;;;;20.05;8.40;;;;;;;;;;6002832;23;20015;-87
2022/12/14 07:09:10;;;;;;;18.25;8.38;;;;;;;;;;5980354;23;20511;-86
2022/12/14 07:11:36;;;;;;;20.17;9.50;;;;;;;;;;5966577;23;20094;-86
2022/12/14 07:14:05;;;;;;;18.25;8.68;;;;;;;;;;5979937;23;20095;-87
2022/12/14 07:16:32;;;;;;;19.50;8.70;;;;;;;;;;6002383;23;20147;-87
2022/12/14 07:18:59;;;;;;;23.17;8.90;;;;;;;;;;6002809;23;20102;-86
2022/12/14 07:21:25;;;;;;;19.42;9.15;;;;;;;;;;5978817;23;20038;-87
2022/12/14 07:23:51;;;;;;;18.50;8.98;;;;;;;;;;6003620;23;20016;-86
2022/12/14 07:26:19;;;;;;;18.00;8.90;;;;;;;;;;5980557;23;20468;-83
2022/12/14 07:28:45;;;;;;;18.38;8.30;;;;;;;;;;6004466;23;20019;-81
2022/12/14 07:31:18;;;;;;;20.67;8.57;;;;;;;;;;5980306;23;20030;-82
2022/12/14 07:33:47;;;;;;;17.10;8.00;;;;;;;;;;5980719;23;20631;-81
2022/12/14 07:36:15;;;;;;;16.83;8.45;;;;;;;;;;6004939;23;20411;-80
2022/12/14 07:38:41;;;;;;;15.70;7.50;;;;;;;;;;5980956;23;20111;-81
2022/12/14 07:41:12;;;;;;;19.02;9.23;;;;;;;;;;6004497;23;20090;-84
2022/12/14 07:43:38;;;;;;;17.33;8.65;;;;;;;;;;5982369;23;20026;-84
2022/12/14 07:46:06;;;;;;;20.42;9.70;;;;;;;;;;6005248;23;20027;-83
2022/12/14 07:48:31;;;;;;;;;;;;;;;;;;6005267;23;20038;-84
2022/12/14 07:51:02;;;;;;;15.85;8.00;;;;;;;;;;6007734;23;19922;-83
2022/12/14 07:53:28;;;;;;;14.00;7.18;;;;;;;;;;6004938;23;20021;-84
2022/12/14 07:55:53;;;;;;;22.13;9.27;;;;;;;;;;6003200;23;20052;-84
2022/12/14 07:58:18;;;;;;;19.48;8.40;;;;;;;;;;6005511;23;20054;-84
2022/12/14 08:00:44;;;;;;;15.55;8.20;;;;;;;;;;6002856;23;20051;-84
2022/12/14 08:03:10;;;;;;;17.77;8.57;;;;;;;;;;5990922;23;20153;-90
2022/12/14 08:05:38;;;;;;;17.77;8.88;;;;;;;;;;5982186;23;20031;-91
2022/12/14 08:08:03;;;;;;;14.18;7.55;;;;;;;;;;5982280;23;20023;-89
2022/12/14 08:10:29;;;;;;;16.48;8.13;;;;;;;;;;5981211;23;20027;-88
2022/12/14 08:12:57;;;;;;;15.48;8.63;;;;;;;;;;5992950;23;20393;-90
2022/12/14 08:15:23;;;;;;;15.88;7.95;;;;;;;;;;5981511;23;20027;-90
2022/12/14 08:17:48;;;;;;;18.83;7.70;;;;;;;;;;5981896;23;20019;-92
2022/12/14 08:20:14;;;;;;;15.52;7.88;;;;;;;;;;5991230;23;20330;-91
2022/12/14 08:22:39;;;;;;;17.17;8.15;;;;;;;;;;5980242;23;20101;-92
2022/12/14 08:25:05;;;;;;;17.52;8.25;;;;;;;;;;5994868;23;20041;-86
2022/12/14 08:27:30;;;;;;;19.75;8.95;;;;;;;;;;5983366;23;20074;-89
2022/12/14 08:29:58;;;;;;;19.27;8.65;;;;;;;;;;5968778;23;20444;-93
2022/12/14 08:32:23;;;;;;;17.50;8.50;;;;;;;;;;5982374;23;20038;-89
2022/12/14 08:34:49;;;;;;;15.68;7.50;;;;;;;;;;6004714;23;20047;-89
2022/12/14 08:37:14;;;;;;;16.88;8.45;;;;;;;;;;5982068;23;20019;-91
2022/12/14 08:39:40;;;;;;;15.82;7.85;;;;;;;;;;6005296;23;20011;-89
2022/12/14 08:42:05;;;;;;;19.20;9.13;;;;;;;;;;6005013;23;20030;-89
2022/12/14 08:44:30;;;;;;;19.38;8.75;;;;;;;;;;6005808;23;20022;-92
2022/12/14 08:46:56;;;;;;;17.50;8.68;;;;;;;;;;5981243;23;20431;-92
2022/12/14 08:49:21;;;;;;;17.42;8.05;;;;;;;;;;5981693;23;20027;-89
2022/12/14 08:51:47;;;;;;;15.38;8.20;;;;;;;;;;5982125;23;20015;-93
2022/12/14 08:54:12;;;;;;;19.00;9.35;;;;;;;;;;6005407;23;20095;-93
2022/12/14 08:56:38;;;;;;;17.50;8.88;;;;;;;;;;5980932;23;20023;-92
2022/12/14 08:59:03;;;;;;;16.10;7.88;;;;;;;;;;5982461;23;20494;-90
2022/12/14 09:01:29;;;;;;;17.77;8.25;;;;;;;;;;5968877;23;20011;-88
2022/12/14 09:03:55;;;;;;;17.70;8.48;;;;;;;;;;5967803;23;20085;-90
2022/12/14 09:06:27;;;;;;;21.15;8.77;;;;;;;;;;6004885;23;20019;-90
2022/12/14 09:08:54;;;;;;;19.60;9.30;;;;;;;;;;6006142;23;20091;-90
2022/12/14 09:11:20;;;;;;;17.88;8.77;;;;;;;;;;5981672;23;20047;-90
2022/12/14 09:13:46;;;;;;;17.23;9.30;;;;;;;;;;5982619;23;20023;-87
2022/12/14 09:16:18;;;;;;;14.55;7.80;;;;;;;;;;5980410;23;20026;-91
2022/12/14 09:18:47;;;;;;;18.02;9.18;;;;;;;;;;5982228;23;20030;-91
2022/12/14 09:21:14;;;;;;;17.42;8.30;;;;;;;;;;5980665;23;20321;-90
2022/12/14 09:23:40;;;;;;;17.75;8.98;;;;;;;;;;6004933;23;20389;-88
2022/12/14 09:26:15;;;;;;;19.92;8.80;;;;;;;;;;6008671;23;20023;-91
2022/12/14 09:28:44;;;;;;;22.42;8.70;;;;;;;;;;6012112;23;20019;-90
2022/12/14 09:31:14;;;;;;;18.70;8.07;;;;;;;;;;5988805;23;20436;-89
2022/12/14 09:33:42;;;;;;;21.67;9.77;;;;;;;;;;6000078;23;20019;-91
2022/12/14 09:36:22;;;;;;;17.23;8.27;;;;;;;;;;5991212;23;20800;-89
2022/12/14 09:38:53;;;;;;;18.77;9.27;;;;;;;;;;5978947;23;20012;-87
2022/12/14 09:41:35;;;;;;;16.90;8.32;;;;;;;;;;5993521;23;20464;-86
2022/12/14 09:44:10;;;;;;;16.15;8.55;;;;;;;;;;6014957;23;20025;-88
2022/12/14 09:46:35;;;;;;;19.30;9.20;;;;;;;;;;6008328;23;20102;-85
2022/12/14 09:49:01;;;;;;;18.17;8.82;;;;;;;;;;5980054;23;20043;-83
2022/12/14 09:51:33;;;;;;;15.75;8.43;;;;;;;;;;5959516;23;20036;-84
2022/12/14 09:54:07;;;;;;;15.93;8.23;;;;;;;;;;5987702;23;20019;-88
2022/12/14 09:56:33;;;;;;;15.88;8.00;;;;;;;;;;6019554;23;20015;-88
2022/12/14 09:59:00;;;;;;;16.65;8.23;;;;;;;;;;6010861;23;20802;-89
2022/12/14 10:01:59;;;;;;;15.63;7.95;;;;;;;;;;6011965;23;20526;-88
2022/12/14 10:04:51;;;;;;;16.45;8.63;;;;;;;;;;5958790;23;20034;-89
2022/12/14 10:07:22;;;;;;;25.20;8.07;;;;;;;;;;5988179;23;20011;-87
2022/12/14 10:09:55;;;;;;;20.05;8.57;;;;;;;;;;6032847;23;20479;-88
2022/12/14 10:12:22;;;;;;;15.55;7.85;;;;;;;;;;6009695;23;20020;-87
2022/12/14 10:15:09;;;;;;;14.50;8.07;;;;;;;;;;6008293;23;20015;-88
2022/12/14 10:17:56;;;;;;;20.33;9.05;;;;;;;;;;6033840;23;20019;-86
2022/12/14 10:20:40;;;;;;;18.85;9.10;;;;;;;;;;6033466;23;20082;-87
2022/12/14 10:23:11;;;;;;;18.60;8.38;;;;;;;;;;6006808;23;20419;-89
2022/12/14 10:25:38;;;;;;;17.15;8.15;;;;;;;;;;5978952;23;20074;-87
2022/12/14 10:28:14;;;;;;;;;;;;;;;;;;5983145;23;20039;-87
2022/12/14 10:30:41;;;;;;;15.57;7.28;;;;;;;;;;6004774;23;20425;-87
2022/12/14 10:33:16;;;;;;;17.17;8.85;;;;;;;;;;6004595;23;20023;-88
2022/12/14 10:35:48;;;;;;;17.83;8.23;;;;;;;;;;6005416;23;20016;-87
2022/12/14 10:38:50;;;;;;;18.00;9.23;;;;;;;;;;6005373;23;20058;-87
2022/12/14 10:41:57;;;;;;;17.17;8.20;;;;;;;;;;6030369;23;20203;-89
2022/12/14 10:44:41;;;;;;;;;;;;;;;;;;5988892;23;20019;-88
2022/12/14 10:47:15;;;;;;;18.65;7.63;;;;;;;;;;6005238;23;19945;-88
2022/12/14 10:50:12;;;;;;;15.63;8.00;;;;;;;;;;6026340;23;20402;-88
2022/12/14 10:52:40;;;;;;;17.67;8.18;;;;;;;;;;5957400;23;20011;-88
2022/12/14 10:55:15;;;;;;;;;;;;;;;;;;6006693;23;20484;-88
2022/12/14 10:57:41;;;;;;;15.60;7.90;;;;;;;;;;6027949;23;19961;-87
2022/12/14 11:00:14;;;;;;;18.55;9.18;;;;;;;;;;5981581;23;20755;-88
2022/12/14 11:02:42;;;;;;;17.15;8.85;;;;;;;;;;5980715;23;20018;-88
2022/12/14 11:05:33;;;;;;;19.02;8.32;;;;;;;;;;6029976;23;20026;-86
2022/12/14 11:07:59;;;;;;;18.15;8.43;;;;;;;;;;6027823;23;20475;-88
2022/12/14 11:10:29;;;;;;;15.88;8.63;;;;;;;;;;5979399;23;20028;-83
2022/12/14 11:13:06;;;;;;;15.05;8.07;;;;;;;;;;6003606;23;20614;-87
2022/12/14 11:15:36;;;;;;;18.38;9.45;;;;;;;;;;6027525;23;20027;-87
2022/12/14 11:18:10;;;;;;;16.38;8.95;;;;;;;;;;6029407;23;20490;-87
2022/12/14 11:20:36;;;;;;;17.88;8.63;;;;;;;;;;6026603;23;20688;-87
2022/12/14 11:23:17;;;;;;;14.02;7.78;;;;;;;;;;6004787;23;20023;-87
2022/12/14 11:25:44;;;;;;;16.73;7.82;;;;;;;;;;5980344;23;20011;-89
2022/12/14 11:28:29;;;;;;;15.75;8.43;;;;;;;;;;6004015;23;20356;-86
2022/12/14 11:31:12;;;;;;;17.38;8.00;;;;;;;;;;6027937;23;20023;-87
2022/12/14 11:33:45;;;;;;;15.95;7.68;;;;;;;;;;5981105;23;20015;-87
2022/12/14 11:36:23;;;;;;;15.88;7.72;;;;;;;;;;6002989;23;20422;-86
2022/12/14 11:38:56;;;;;;;16.42;8.50;;;;;;;;;;5982631;23;20457;-87
2022/12/14 11:41:21;;;;;;;16.83;8.05;;;;;;;;;;5981842;23;20082;-88
2022/12/14 11:44:20;;;;;;;17.08;8.32;;;;;;;;;;6005041;23;20011;-86
2022/12/14 11:46:57;;;;;;;15.32;7.63;;;;;;;;;;5982364;23;20033;-87
2022/12/14 11:49:24;;;;;;;;;;;;;;;;;;6006378;23;20019;-89
2022/12/14 11:51:57;;;;;;;17.05;8.00;;;;;;;;;;6005412;23;19961;-90
2022/12/14 11:54:23;;;;;;;17.00;8.10;;;;;;;;;;5983064;23;20023;-86
2022/12/14 11:56:49;;;;;;;16.17;8.68;;;;;;;;;;5981992;23;20487;-87
2022/12/14 11:59:19;;;;;;;17.08;7.93;;;;;;;;;;5982002;23;20356;-89
2022/12/14 12:01:44;;;;;;;15.77;8.38;;;;;;;;;;6004161;23;20011;-90
2022/12/14 12:04:14;;;;;;;15.35;7.75;;;;;;;;;;5981541;23;20086;-89
2022/12/14 12:06:40;;;;;;;15.50;7.95;;;;;;;;;;5981657;23;20046;-89
2022/12/14 12:09:29;;;;;;;13.57;7.85;;;;;;;;;;6006002;23;20016;-86
2022/12/14 12:11:55;;;;;;;15.65;8.00;;;;;;;;;;5968090;23;20030;-89
2022/12/14 12:14:34;;;;;;;13.38;8.13;;;;;;;;;;5982683;23;20015;-87
2022/12/14 12:16:59;;;;;;;17.23;7.85;;;;;;;;;;5981618;23;20026;-89
2022/12/14 12:19:35;;;;;;;21.48;8.98;;;;;;;;;;6005839;23;20023;-89
2022/12/14 12:22:21;;;;;;;14.00;7.63;;;;;;;;;;5981350;23;20022;-89
2022/12/14 12:25:02;;;;;;;18.13;7.72;;;;;;;;;;5920140;24;20021;-90
2022/12/14 12:27:28;;;;;;;17.25;7.93;;;;;;;;;;5920864;24;20095;-88
2022/12/14 12:30:04;;;;;;;14.43;7.50;;;;;;;;;;5920240;24;20526;-89
2022/12/14 12:32:36;;;;;;;14.15;7.70;;;;;;;;;;5920200;24;20810;-90
2022/12/14 12:35:06;;;;;;;12.75;7.35;;;;;;;;;;5921227;24;20580;-90
2022/12/14 12:37:31;;;;;;;14.15;7.82;;;;;;;;;;5943054;24;20036;-89
2022/12/14 12:40:01;;;;;;;14.27;7.32;;;;;;;;;;5921224;24;20059;-90
2022/12/14 12:42:44;;;;;;;16.17;8.18;;;;;;;;;;5908734;24;20436;-88
2022/12/14 12:45:25;;;;;;;13.30;7.25;;;;;;;;;;5920788;24;20035;-87
2022/12/14 12:47:55;;;;;;;15.18;6.95;;;;;;;;;;5920655;24;20073;-88
2022/12/14 12:50:28;;;;;;;17.10;8.05;;;;;;;;;;5918183;24;20029;-89
2022/12/14 12:53:03;;;;;;;15.40;7.88;;;;;;;;;;5919992;24;20025;-90
2022/12/14 12:55:31;;;;;;;12.88;7.70;;;;;;;;;;5919942;24;20017;-88
2022/12/14 12:57:58;;;;;;;13.73;7.60;;;;;;;;;;5898150;24;20492;-88
2022/12/14 13:00:26;;;;;;;15.20;7.75;;;;;;;;;;5919884;24;20373;-88
2022/12/14 13:06:15;;;;;;;16.17;8.25;;;;;;;;;;6029675;23;20405;-89
2022/12/14 13:08:43;;;;;;;15.20;7.57;;;;;;;;;;6006457;23;20019;-89
2022/12/14 13:11:19;;;;;;;16.67;7.72;;;;;;;;;;6004676;23;20646;-89
2022/12/14 13:13:49;;;;;;;15.03;8.10;;;;;;;;;;6005978;23;20050;-89
2022/12/14 13:16:41;;;;;;;17.08;8.57;;;;;;;;;;6004303;23;20478;-88
2022/12/14 13:19:21;;;;;;;15.15;7.40;;;;;;;;;;6000132;23;20019;-88
2022/12/14 13:21:48;;;;;;;13.68;6.90;;;;;;;;;;6029828;23;20022;-88
2022/12/14 13:24:16;;;;;;;16.88;8.05;;;;;;;;;;5982501;23;20019;-89
2022/12/14 13:26:50;;;;;;;17.85;8.98;;;;;;;;;;6005236;23;20437;-87
2022/12/14 13:29:34;;;;;;;17.92;8.55;;;;;;;;;;6028249;23;20027;-88
2022/12/14 13:32:12;;;;;;;16.25;7.78;;;;;;;;;;6028802;23;20023;-87
2022/12/14 13:34:51;;;;;;;21.75;8.25;;;;;;;;;;6005156;23;20019;-87
2022/12/14 13:37:55;;;;;;;20.45;8.50;;;;;;;;;;5981526;23;20023;-87
2022/12/14 13:40:50;;;;;;;22.60;9.38;;;;;;;;;;6004073;23;20407;-87
2022/12/14 13:43:50;;;;;;;18.60;8.45;;;;;;;;;;6006344;23;20047;-87
2022/12/14 13:46:23;;;;;;;14.40;7.70;;;;;;;;;;5992776;23;20031;-86
2022/12/14 13:48:54;;;;;;;17.08;8.13;;;;;;;;;;5981869;23;20333;-87
2022/12/14 13:51:31;;;;;;;16.42;7.60;;;;;;;;;;6004244;23;20019;-87
2022/12/14 13:54:01;;;;;;;14.70;8.07;;;;;;;;;;5981495;23;20035;-87
2022/12/14 13:56:31;;;;;;;15.27;7.97;;;;;;;;;;5980705;23;20015;-88
2022/12/14 13:58:57;;;;;;;16.33;8.10;;;;;;;;;;5973365;23;20476;-88
2022/12/14 14:01:44;;;;;;;17.93;8.83;;;;;;;;;;5952044;23;20487;-87
2022/12/14 14:04:09;;;;;;;16.73;8.07;;;;;;;;;;5977120;23;20557;-87
2022/12/14 14:06:38;;;;;;;20.35;9.02;;;;;;;;;;5978190;23;20024;-87
2022/12/14 14:09:25;;;;;;;15.60;8.15;;;;;;;;;;5977557;23;20467;-87
2022/12/14 14:11:57;;;;;;;17.88;9.50;;;;;;;;;;5976533;23;20151;-87
2022/12/14 14:14:44;;;;;;;19.33;9.20;;;;;;;;;;5976603;23;20030;-88
2022/12/14 14:17:18;;;;;;;19.80;9.13;;;;;;;;;;5975793;23;20034;-88
2022/12/14 14:19:44;;;;;;;19.02;8.23;;;;;;;;;;5976009;23;20781;-89
2022/12/14 14:22:22;;;;;;;18.95;8.85;;;;;;;;;;5976399;23;20023;-89
2022/12/14 14:25:01;;;;;;;20.15;9.13;;;;;;;;;;5953557;23;20334;-89
2022/12/14 14:27:40;;;;;;;20.00;9.57;;;;;;;;;;5952685;23;20050;-89
2022/12/14 14:30:29;;;;;;;17.42;8.23;;;;;;;;;;5976800;23;20028;-87
2022/12/14 14:32:57;;;;;;;18.33;8.85;;;;;;;;;;5976853;23;20015;-88
2022/12/14 14:35:35;;;;;;;16.50;8.73;;;;;;;;;;5976596;23;20080;-88
2022/12/14 14:38:22;;;;;;;16.38;8.43;;;;;;;;;;5954363;23;20020;-88
2022/12/14 14:40:49;;;;;;;;;;;;;;;;;;5975474;23;20035;-88
2022/12/14 14:43:35;;;;;;;16.02;8.45;;;;;;;;;;5977095;23;19910;-87
2022/12/14 14:46:08;;;;;;;17.95;8.70;;;;;;;;;;5953513;23;20420;-87
2022/12/14 14:49:03;;;;;;;16.67;7.38;;;;;;;;;;5952715;23;20012;-87
2022/12/14 14:51:31;;;;;;;18.38;9.10;;;;;;;;;;5951028;23;20027;-87
2022/12/14 14:54:34;;;;;;;17.08;8.82;;;;;;;;;;5953309;23;20060;-87
2022/12/14 14:57:00;;;;;;;17.50;8.13;;;;;;;;;;5886782;24;20049;-89
2022/12/14 14:59:39;;;;;;;18.25;9.27;;;;;;;;;;5965938;23;20087;-87
2022/12/14 15:02:23;;;;;;;20.77;8.77;;;;;;;;;;5981357;23;20023;-88
2022/12/14 15:04:50;;;;;;;16.25;8.55;;;;;;;;;;5980498;23;20488;-88
2022/12/14 15:07:23;;;;;;;19.67;8.48;;;;;;;;;;5968379;23;20393;-88
2022/12/14 15:10:22;;;;;;;18.13;8.55;;;;;;;;;;6004401;23;20020;-89
2022/12/14 15:12:56;;;;;;;18.42;10.05;;;;;;;;;;5980548;23;20030;-88
2022/12/14 15:15:30;;;;;;;21.10;8.55;;;;;;;;;;6003143;23;20460;-89